createdAt,value
2022-12-18T00:01:23.906Z,-4.15
2022-12-18T00:03:53.892Z,-4.16
2022-12-18T00:06:22.349Z,-4.28
2022-12-18T00:08:50.624Z,-4.31
2022-12-18T00:11:20.755Z,-4.26
2022-12-18T00:13:48.998Z,-4.27
2022-12-18T00:16:19.429Z,-4.37
2022-12-18T00:18:47.513Z,-4.17
2022-12-18T00:21:17.278Z,-4.25
2022-12-18T00:23:46.125Z,-4.21
2022-12-18T00:26:18.044Z,-4.17
2022-12-18T00:28:46.691Z,-4.05
2022-12-18T00:31:15.648Z,-4.14
2022-12-18T00:33:43.596Z,-4.30
2022-12-18T00:36:14.746Z,-4.47
2022-12-18T00:38:44.099Z,-4.40
2022-12-18T00:41:13.566Z,-4.19
2022-12-18T00:43:41.400Z,-4.25
2022-12-18T00:46:09.422Z,-4.32
2022-12-18T00:48:37.417Z,-4.28
2022-12-18T00:51:05.227Z,-4.19
2022-12-18T00:53:32.968Z,-4.43
2022-12-18T00:56:02.075Z,-4.46
2022-12-18T00:58:29.810Z,-4.48
2022-12-18T01:00:57.655Z,-4.35
2022-12-18T01:03:25.441Z,-4.57
2022-12-18T01:05:53.277Z,-4.64
2022-12-18T01:08:21.067Z,-4.43
2022-12-18T01:10:48.795Z,-4.33
2022-12-18T01:13:17.932Z,-4.38
2022-12-18T01:15:50.403Z,-4.40
2022-12-18T01:18:18.186Z,-4.39
2022-12-18T01:20:46.029Z,-4.40
2022-12-18T01:23:13.834Z,-4.60
2022-12-18T01:25:41.586Z,-4.53
2022-12-18T01:28:11.365Z,-4.48
2022-12-18T01:30:40.551Z,-4.33
2022-12-18T01:33:08.357Z,-4.39
2022-12-18T01:35:42.813Z,-4.51
2022-12-18T01:38:10.781Z,-4.58
2022-12-18T01:40:38.910Z,-4.45
2022-12-18T01:43:06.661Z,-4.52
2022-12-18T01:45:34.724Z,-4.48
2022-12-18T01:48:05.716Z,-4.55
2022-12-18T01:50:35.810Z,-4.37
2022-12-18T01:53:08.289Z,-4.46
2022-12-18T01:55:39.513Z,-4.56
2022-12-18T01:58:07.316Z,-4.52
2022-12-18T02:00:35.104Z,-4.64
2022-12-18T02:03:04.514Z,-4.52
2022-12-18T02:05:41.595Z,-4.57
2022-12-18T02:08:13.483Z,-4.58
2022-12-18T02:10:48.398Z,-4.55
2022-12-18T02:13:21.569Z,-4.60
2022-12-18T02:15:53.503Z,-4.62
2022-12-18T02:18:26.268Z,-4.57
2022-12-18T02:20:58.778Z,-4.55
2022-12-18T02:23:43.049Z,-4.67
2022-12-18T02:26:19.791Z,-4.61
2022-12-18T02:29:05.759Z,-4.76
2022-12-18T02:31:44.667Z,-4.76
2022-12-18T02:34:14.079Z,-4.61
2022-12-18T02:36:45.680Z,-4.73
2022-12-18T02:39:15.877Z,-4.52
2022-12-18T02:41:57.590Z,-4.52
2022-12-18T02:44:26.198Z,-4.48
2022-12-18T02:46:55.687Z,-4.36
2022-12-18T02:49:30.203Z,-4.34
2022-12-18T02:52:06.320Z,-4.30
2022-12-18T02:54:52.597Z,-4.31
2022-12-18T02:57:27.270Z,-4.37
2022-12-18T03:00:00.920Z,-4.33
2022-12-18T03:02:37.864Z,-4.26
2022-12-18T03:05:11.677Z,-4.14
2022-12-18T03:07:42.167Z,-4.14
2022-12-18T03:10:15.569Z,-4.01
2022-12-18T03:12:47.323Z,-4.00
2022-12-18T03:15:19.679Z,-3.96
2022-12-18T03:17:55.149Z,-3.97
2022-12-18T03:20:29.128Z,-4.02
2022-12-18T03:23:01.449Z,-4.08
2022-12-18T03:25:30.028Z,-3.95
2022-12-18T03:28:01.724Z,-4.10
2022-12-18T03:30:31.573Z,-4.11
2022-12-18T03:33:04.863Z,-4.08
2022-12-18T03:35:35.740Z,-4.06
2022-12-18T03:38:40.916Z,-4.11
2022-12-18T03:41:17.674Z,-3.97
2022-12-18T03:44:13.495Z,-3.88
2022-12-18T03:46:49.424Z,-3.93
2022-12-18T03:49:24.611Z,-3.88
2022-12-18T03:51:57.394Z,-3.81
2022-12-18T03:54:26.100Z,-3.76
2022-12-18T03:57:05.008Z,-3.56
2022-12-18T03:59:35.647Z,-3.64
2022-12-18T04:02:06.334Z,-3.58
2022-12-18T04:04:35.547Z,-3.39
2022-12-18T04:07:05.836Z,-3.10
2022-12-18T04:09:36.342Z,-3.04
2022-12-18T04:12:05.177Z,-2.97
2022-12-18T04:14:36.561Z,-3.03
2022-12-18T04:17:05.741Z,-2.93
2022-12-18T04:19:34.767Z,-2.78
2022-12-18T04:22:04.306Z,-2.64
2022-12-18T04:24:39.455Z,-2.52
2022-12-18T04:27:17.084Z,-2.31
2022-12-18T04:29:50.595Z,-2.21
2022-12-18T04:32:19.459Z,-2.15
2022-12-18T04:34:48.755Z,-2.40
2022-12-18T04:37:16.993Z,-2.30
2022-12-18T04:39:45.757Z,-2.21
2022-12-18T04:42:21.507Z,-2.07
2022-12-18T04:44:50.601Z,-2.23
2022-12-18T04:47:18.305Z,-2.16
2022-12-18T04:49:46.035Z,-2.13
2022-12-18T04:52:13.759Z,-2.15
2022-12-18T04:54:41.529Z,-2.37
2022-12-18T04:57:09.290Z,-2.15
2022-12-18T04:59:37.070Z,-2.07
2022-12-18T05:02:06.348Z,-2.15
2022-12-18T05:04:34.151Z,-2.04
2022-12-18T05:07:01.891Z,-2.01
2022-12-18T05:09:29.533Z,-1.97
2022-12-18T05:11:57.250Z,-1.89
2022-12-18T05:14:25.027Z,-1.80
2022-12-18T05:16:55.741Z,-1.84
2022-12-18T05:19:27.075Z,-1.92
2022-12-18T05:21:54.815Z,-1.88
2022-12-18T05:24:22.639Z,-1.82
2022-12-18T05:26:50.412Z,-1.84
2022-12-18T05:29:18.186Z,-1.90
2022-12-18T05:31:45.985Z,-1.79
2022-12-18T05:34:13.802Z,-1.79
2022-12-18T05:36:43.714Z,-1.59
2022-12-18T05:39:12.390Z,-1.44
2022-12-18T05:41:40.107Z,-1.39
2022-12-18T05:44:07.944Z,-1.52
2022-12-18T05:46:35.726Z,-1.40
2022-12-18T05:49:03.685Z,-1.20
2022-12-18T05:51:32.381Z,-0.96
2022-12-18T05:54:01.731Z,-1.13
2022-12-18T05:56:29.492Z,-0.98
2022-12-18T05:58:57.234Z,-0.71
2022-12-18T06:01:28.088Z,-0.62
2022-12-18T06:03:56.277Z,-0.53
2022-12-18T06:06:25.832Z,-0.48
2022-12-18T06:08:54.402Z,-0.38
2022-12-18T06:11:25.544Z,-0.41
2022-12-18T06:13:57.873Z,-0.49
2022-12-18T06:16:26.789Z,-0.43
2022-12-18T06:18:54.600Z,-0.25
2022-12-18T06:21:22.357Z,-0.30
2022-12-18T06:23:50.067Z,-0.20
2022-12-18T06:26:17.826Z,-0.25
2022-12-18T06:28:46.983Z,-0.23
2022-12-18T06:31:14.783Z,-0.34
2022-12-18T06:33:42.762Z,-0.35
2022-12-18T06:36:13.725Z,-0.32
2022-12-18T06:38:43.877Z,-0.36
2022-12-18T06:41:12.514Z,-0.42
2022-12-18T06:43:40.762Z,-0.43
2022-12-18T06:46:10.898Z,-0.41
2022-12-18T06:48:38.950Z,-0.33
2022-12-18T06:51:07.108Z,-0.48
2022-12-18T06:53:35.130Z,-0.52
2022-12-18T06:56:09.258Z,-0.45
2022-12-18T06:58:37.820Z,-0.66
2022-12-18T07:01:07.385Z,-0.78
2022-12-18T07:03:37.089Z,-0.61
2022-12-18T07:06:05.617Z,-0.62
2022-12-18T07:08:33.670Z,-0.51
2022-12-18T07:11:01.374Z,-0.36
2022-12-18T07:13:29.126Z,-0.25
2022-12-18T07:15:56.872Z,-0.20
2022-12-18T07:18:24.665Z,-0.05
2022-12-18T07:20:53.706Z,0.00
2022-12-18T07:23:21.404Z,-0.03
2022-12-18T07:25:49.158Z,-0.13
2022-12-18T07:28:17.833Z,-0.28
2022-12-18T07:30:45.603Z,-0.30
2022-12-18T07:33:13.388Z,-0.12
2022-12-18T07:35:41.136Z,0.06
2022-12-18T07:38:10.184Z,-0.06
2022-12-18T07:40:37.919Z,0.16
2022-12-18T07:43:05.642Z,0.07
2022-12-18T07:45:33.616Z,-0.02
2022-12-18T07:48:01.422Z,0.37
2022-12-18T07:50:29.180Z,0.50
2022-12-18T07:52:57.104Z,0.72
2022-12-18T07:55:27.107Z,1.02
2022-12-18T07:58:00.721Z,0.93
2022-12-18T08:00:28.957Z,0.72
2022-12-18T08:02:56.784Z,0.64
2022-12-18T08:05:24.804Z,1.09
2022-12-18T08:07:52.549Z,1.43
2022-12-18T08:10:20.489Z,1.84
2022-12-18T08:12:51.376Z,2.12
2022-12-18T08:15:19.289Z,1.79
2022-12-18T08:17:47.083Z,1.84
2022-12-18T08:20:15.963Z,2.17
2022-12-18T08:22:43.778Z,2.45
2022-12-18T08:25:11.936Z,2.33
2022-12-18T08:27:39.671Z,2.25
2022-12-18T08:30:10.483Z,2.15
2022-12-18T08:32:38.277Z,2.09
2022-12-18T08:35:08.878Z,2.43
2022-12-18T08:37:36.647Z,2.62
2022-12-18T08:40:04.839Z,2.65
2022-12-18T08:42:50.198Z,2.66
2022-12-18T08:45:19.629Z,2.01
2022-12-18T08:47:47.365Z,2.09
2022-12-18T08:50:15.864Z,2.60
2022-12-18T08:52:43.642Z,2.80
2022-12-18T08:55:11.579Z,2.82
2022-12-18T08:57:39.375Z,2.95
2022-12-18T09:00:08.697Z,3.18
2022-12-18T09:02:37.919Z,3.20
2022-12-18T09:05:06.521Z,3.56
2022-12-18T09:07:34.242Z,3.75
2022-12-18T09:10:01.982Z,3.91
2022-12-18T09:12:29.706Z,4.00
2022-12-18T09:14:57.608Z,3.87
2022-12-18T09:17:25.491Z,3.91
2022-12-18T09:19:54.593Z,3.93
2022-12-18T09:22:22.589Z,3.97
2022-12-18T09:24:50.931Z,4.02
2022-12-18T09:27:18.684Z,3.85
2022-12-18T09:29:46.447Z,3.56
2022-12-18T09:32:18.948Z,3.99
2022-12-18T09:34:50.221Z,4.26
2022-12-18T09:37:19.353Z,4.52
2022-12-18T09:39:47.086Z,4.64
2022-12-18T09:42:22.155Z,4.83
2022-12-18T09:44:52.644Z,5.09
2022-12-18T09:47:24.015Z,5.44
2022-12-18T09:49:55.289Z,5.62
2022-12-18T09:52:28.459Z,5.59
2022-12-18T09:55:00.641Z,5.83
2022-12-18T09:57:28.499Z,6.07
2022-12-18T09:59:59.126Z,5.97
2022-12-18T10:02:28.612Z,6.24
2022-12-18T10:05:09.921Z,6.15
2022-12-18T10:07:47.848Z,6.44
2022-12-18T10:10:23.839Z,6.80
2022-12-18T10:13:04.284Z,6.89
2022-12-18T10:15:36.809Z,6.90
2022-12-18T10:18:10.117Z,7.14
2022-12-18T10:20:42.606Z,7.13
2022-12-18T10:23:18.194Z,7.42
2022-12-18T10:25:56.253Z,7.30
2022-12-18T10:28:25.390Z,7.80
2022-12-18T10:30:53.173Z,8.06
2022-12-18T10:33:23.152Z,8.25
2022-12-18T10:35:55.366Z,8.00
2022-12-18T10:38:26.739Z,8.07
2022-12-18T10:40:56.541Z,7.93
2022-12-18T10:43:27.312Z,7.99
2022-12-18T10:46:16.525Z,8.06
2022-12-18T10:48:52.999Z,8.51
2022-12-18T10:51:25.921Z,8.56
2022-12-18T10:53:57.939Z,8.51
2022-12-18T10:56:27.253Z,8.46
2022-12-18T11:02:39.722Z,9.07
2022-12-18T11:05:26.608Z,9.10
2022-12-18T11:07:55.057Z,9.40
2022-12-18T11:10:30.311Z,9.30
2022-12-18T11:12:58.477Z,9.24
2022-12-18T11:15:28.569Z,9.44
2022-12-18T11:17:56.395Z,9.50
2022-12-18T11:20:32.596Z,9.41
2022-12-18T11:23:02.093Z,9.32
2022-12-18T11:25:36.217Z,9.59
2022-12-18T11:28:05.732Z,9.60
2022-12-18T11:30:35.867Z,9.87
2022-12-18T11:33:07.310Z,9.82
2022-12-18T11:35:43.088Z,10.04
2022-12-18T11:38:20.417Z,9.92
2022-12-18T11:40:53.912Z,9.94
2022-12-18T11:43:25.296Z,9.98
2022-12-18T11:45:55.883Z,9.91
2022-12-18T11:48:26.792Z,9.94
2022-12-18T11:50:56.175Z,9.48
2022-12-18T11:53:24.234Z,9.03
2022-12-18T11:56:01.936Z,8.69
2022-12-18T11:58:44.768Z,8.99
2022-12-18T12:01:19.865Z,9.20
2022-12-18T12:04:01.214Z,9.48
2022-12-18T12:06:37.402Z,9.55
2022-12-18T12:09:11.739Z,9.22
2022-12-18T12:11:49.919Z,8.95
2022-12-18T12:14:36.975Z,9.03
2022-12-18T12:17:10.070Z,8.65
2022-12-18T12:19:46.032Z,8.76
2022-12-18T12:22:18.985Z,9.07
2022-12-18T12:24:57.130Z,8.76
2022-12-18T12:27:35.887Z,8.84
2022-12-18T12:30:08.830Z,9.06
2022-12-18T12:32:51.736Z,8.93
2022-12-18T12:35:28.400Z,8.66
2022-12-18T12:38:06.100Z,8.72
2022-12-18T12:40:57.064Z,8.68
2022-12-18T12:43:30.014Z,8.66
2022-12-18T12:46:06.075Z,8.81
2022-12-18T12:48:41.377Z,8.86
2022-12-18T12:51:14.941Z,8.45
2022-12-18T12:53:43.597Z,8.70
2022-12-18T12:56:13.943Z,8.85
2022-12-18T12:58:50.480Z,8.86
2022-12-18T13:01:25.689Z,8.87
2022-12-18T13:04:03.292Z,8.57
2022-12-18T13:06:44.817Z,8.45
2022-12-18T13:09:14.031Z,8.60
2022-12-18T13:12:00.254Z,8.69
2022-12-18T13:14:32.331Z,8.67
2022-12-18T13:17:33.477Z,8.56
2022-12-18T13:20:11.225Z,8.43
2022-12-18T13:22:41.360Z,8.58
2022-12-18T13:25:32.135Z,8.42
2022-12-18T13:28:05.960Z,8.48
2022-12-18T13:30:55.667Z,8.43
2022-12-18T13:34:02.081Z,8.44
2022-12-18T13:36:32.739Z,8.40
2022-12-18T13:39:35.774Z,8.11
2022-12-18T13:42:58.500Z,8.25
2022-12-18T13:45:46.253Z,8.34
2022-12-18T13:48:26.072Z,8.25
2022-12-18T13:50:57.448Z,8.18
2022-12-18T13:53:28.997Z,8.15
2022-12-18T13:55:57.146Z,8.16
2022-12-18T13:58:24.972Z,8.04
2022-12-18T14:00:52.737Z,7.90
2022-12-18T14:03:24.379Z,7.93
2022-12-18T14:05:58.254Z,7.69
2022-12-18T14:08:34.902Z,7.39
2022-12-18T14:11:03.163Z,7.25
2022-12-18T14:13:35.075Z,6.99
2022-12-18T14:16:04.335Z,6.77
2022-12-18T14:18:40.429Z,6.47
2022-12-18T14:21:08.899Z,6.57
2022-12-18T14:23:38.514Z,6.13
2022-12-18T14:26:23.142Z,5.68
2022-12-18T14:28:51.040Z,5.77
2022-12-18T14:31:22.364Z,5.77
2022-12-18T14:33:51.771Z,5.56
2022-12-18T14:36:21.253Z,5.56
2022-12-18T14:38:51.334Z,5.42
2022-12-18T14:41:20.554Z,5.63
2022-12-18T14:43:50.573Z,5.58
2022-12-18T14:46:30.718Z,5.59
2022-12-18T14:49:00.203Z,5.60
2022-12-18T14:51:32.597Z,5.54
2022-12-18T14:54:02.368Z,5.48
2022-12-18T14:56:31.823Z,5.54
2022-12-18T14:59:01.622Z,5.58
2022-12-18T15:01:31.963Z,5.47
2022-12-18T15:04:02.522Z,5.44
2022-12-18T15:06:33.747Z,5.40
2022-12-18T15:09:03.016Z,5.50
2022-12-18T15:11:36.779Z,5.57
2022-12-18T15:14:31.274Z,5.51
2022-12-18T15:16:59.532Z,5.59
2022-12-18T15:19:38.455Z,5.60
2022-12-18T15:22:06.963Z,5.85
2022-12-18T15:24:35.267Z,5.58
2022-12-18T15:27:03.219Z,5.69
2022-12-18T15:29:31.590Z,5.45
2022-12-18T15:32:07.019Z,5.40
2022-12-18T15:34:36.151Z,5.62
2022-12-18T15:37:03.955Z,5.51
2022-12-18T15:39:31.895Z,5.91
2022-12-18T15:42:13.545Z,5.68
2022-12-18T15:44:41.300Z,5.99
2022-12-18T15:47:12.925Z,6.15
2022-12-18T15:49:42.123Z,6.14
2022-12-18T15:52:11.502Z,6.22
2022-12-18T15:54:57.392Z,6.19
2022-12-18T15:57:25.178Z,6.02
2022-12-18T15:59:54.006Z,5.91
2022-12-18T16:02:23.703Z,5.73
2022-12-18T16:04:54.857Z,5.57
2022-12-18T16:07:25.436Z,5.30
2022-12-18T16:09:55.486Z,5.39
2022-12-18T16:12:25.998Z,5.57
2022-12-18T16:14:53.784Z,5.23
2022-12-18T16:17:21.545Z,5.22
2022-12-18T16:19:49.241Z,5.35
2022-12-18T16:22:23.943Z,5.27
2022-12-18T16:24:53.489Z,5.18
2022-12-18T16:27:21.635Z,4.95
2022-12-18T16:29:49.388Z,5.14
2022-12-18T16:32:18.464Z,4.87
2022-12-18T16:34:47.062Z,5.25
2022-12-18T16:37:16.214Z,5.23
2022-12-18T16:39:45.812Z,4.94
2022-12-18T16:42:17.177Z,5.22
2022-12-18T16:44:45.839Z,5.35
2022-12-18T16:47:15.098Z,5.47
2022-12-18T16:49:43.294Z,5.52
2022-12-18T16:52:11.033Z,5.43
2022-12-18T16:54:38.896Z,5.18
2022-12-18T16:57:08.311Z,5.31
2022-12-18T16:59:36.282Z,5.06
2022-12-18T17:02:07.336Z,4.85
2022-12-18T17:04:35.987Z,4.98
2022-12-18T17:07:04.617Z,4.72
2022-12-18T17:09:32.364Z,5.07
2022-12-18T17:12:04.023Z,5.01
2022-12-18T17:14:34.769Z,4.80
2022-12-18T17:19:50.873Z,5.04
2022-12-18T17:22:18.941Z,5.33
2022-12-18T17:24:47.518Z,4.91
2022-12-18T17:27:15.502Z,4.47
2022-12-18T17:29:48.015Z,4.52
2022-12-18T17:32:16.530Z,4.34
2022-12-18T17:34:44.465Z,4.25
2022-12-18T17:37:12.251Z,4.29
2022-12-18T17:39:40.415Z,4.53
2022-12-18T17:42:11.474Z,3.96
2022-12-18T17:44:44.871Z,4.08
2022-12-18T17:47:13.181Z,4.36
2022-12-18T17:49:41.289Z,4.54
2022-12-18T17:52:09.085Z,4.36
2022-12-18T17:54:39.494Z,4.28
2022-12-18T17:57:07.400Z,4.19
2022-12-18T17:59:35.167Z,4.35
2022-12-18T18:02:04.517Z,3.97
2022-12-18T18:04:32.604Z,3.95
2022-12-18T18:07:00.434Z,3.67
2022-12-18T18:09:28.567Z,3.79
2022-12-18T18:12:23.068Z,4.13
2022-12-18T18:14:50.831Z,3.98
2022-12-18T18:17:20.860Z,3.82
2022-12-18T18:19:49.791Z,3.79
2022-12-18T18:22:17.735Z,3.94
2022-12-18T18:24:46.759Z,3.65
2022-12-18T18:27:14.964Z,3.32
2022-12-18T18:29:42.971Z,3.49
2022-12-18T18:32:10.969Z,3.48
2022-12-18T18:34:43.051Z,3.84
2022-12-18T18:37:11.749Z,3.97
2022-12-18T18:39:39.500Z,4.27
2022-12-18T18:42:07.408Z,4.15
2022-12-18T18:44:35.174Z,3.88
2022-12-18T18:47:02.981Z,3.84
2022-12-18T18:49:35.752Z,3.96
2022-12-18T18:52:05.010Z,3.41
2022-12-18T18:54:32.743Z,3.29
2022-12-18T18:59:48.360Z,3.37
2022-12-18T19:02:17.322Z,3.28
2022-12-18T19:04:46.079Z,3.02
2022-12-18T19:07:22.537Z,2.88
2022-12-18T19:09:57.946Z,3.06
2022-12-18T19:12:48.974Z,3.03
2022-12-18T19:15:16.735Z,3.20
2022-12-18T19:17:46.673Z,3.13
2022-12-18T19:20:15.647Z,3.01
2022-12-18T19:22:47.939Z,3.02
2022-12-18T19:25:28.142Z,3.12
2022-12-18T19:28:06.339Z,3.09
2022-12-18T19:30:40.150Z,3.04
2022-12-18T19:33:34.092Z,3.17
2022-12-18T19:35:56.028Z,2.99
2022-12-18T19:38:25.561Z,2.91
2022-12-18T19:40:53.435Z,2.80
2022-12-18T19:43:21.307Z,2.58
2022-12-18T19:45:55.713Z,2.88
2022-12-18T19:48:23.630Z,2.83
2022-12-18T19:50:51.439Z,2.79
2022-12-18T19:53:19.221Z,2.81
2022-12-18T19:55:48.496Z,3.02
2022-12-18T19:58:17.731Z,2.91
2022-12-18T20:00:48.071Z,3.24
2022-12-18T20:03:23.488Z,3.37
2022-12-18T20:05:55.246Z,3.30
2022-12-18T20:08:22.999Z,3.31
2022-12-18T20:10:52.215Z,3.18
2022-12-18T20:13:20.712Z,3.29
2022-12-18T20:15:48.459Z,3.45
2022-12-18T20:18:16.523Z,3.33
2022-12-18T20:20:45.581Z,3.03
2022-12-18T20:23:14.524Z,3.18
2022-12-18T20:25:42.328Z,3.21
2022-12-18T20:28:11.486Z,3.30
2022-12-18T20:30:39.348Z,3.40
2022-12-18T20:33:07.069Z,3.74
2022-12-18T20:35:35.019Z,3.78
2022-12-18T20:38:03.901Z,3.40
2022-12-18T20:40:32.360Z,3.97
2022-12-18T20:43:00.475Z,3.76
2022-12-18T20:45:30.471Z,4.08
2022-12-18T20:47:59.449Z,3.91
2022-12-18T20:50:27.435Z,3.83
2022-12-18T20:52:55.227Z,3.83
2022-12-18T20:55:22.965Z,3.52
2022-12-18T20:57:52.655Z,3.75
2022-12-18T21:00:21.241Z,3.82
2022-12-18T21:02:50.634Z,3.79
2022-12-18T21:05:18.610Z,3.16
2022-12-18T21:07:46.365Z,3.31
2022-12-18T21:10:14.234Z,3.32
2022-12-18T21:12:50.889Z,3.11
2022-12-18T21:15:30.836Z,2.93
2022-12-18T21:17:59.934Z,2.77
2022-12-18T21:20:27.713Z,2.90
2022-12-18T21:22:57.331Z,2.98
2022-12-18T21:25:30.767Z,3.05
2022-12-18T21:27:58.493Z,3.06
2022-12-18T21:30:26.526Z,3.21
2022-12-18T21:32:54.252Z,3.30
2022-12-18T21:35:23.337Z,3.09
2022-12-18T21:37:53.119Z,2.94
2022-12-18T21:40:20.798Z,3.14
2022-12-18T21:43:06.494Z,3.04
2022-12-18T21:45:34.272Z,3.11
2022-12-18T21:48:02.240Z,3.11
2022-12-18T21:50:38.693Z,3.11
2022-12-18T21:53:06.444Z,3.11
2022-12-18T21:55:34.231Z,3.15
2022-12-18T21:58:01.993Z,2.95
2022-12-18T22:00:29.804Z,3.16
2022-12-18T22:03:17.547Z,3.11
2022-12-18T22:05:46.984Z,3.25
2022-12-18T22:08:18.380Z,3.52
2022-12-18T22:10:46.418Z,3.15
2022-12-18T22:13:14.355Z,3.26
2022-12-18T22:15:42.278Z,3.49
2022-12-18T22:18:13.023Z,3.61
2022-12-18T22:20:40.730Z,3.59
2022-12-18T22:23:10.474Z,3.76
2022-12-18T22:25:38.948Z,3.71
2022-12-18T22:28:25.629Z,3.64
2022-12-18T22:30:59.289Z,3.59
2022-12-18T22:33:27.749Z,3.53
2022-12-18T22:35:55.525Z,3.60
2022-12-18T22:38:24.617Z,3.90
2022-12-18T22:40:52.399Z,3.75
2022-12-18T22:43:20.128Z,3.64
2022-12-18T22:45:48.976Z,3.62
2022-12-18T22:48:16.737Z,3.49
2022-12-18T22:50:44.480Z,3.41
2022-12-18T22:53:12.373Z,3.39
2022-12-18T22:55:41.486Z,3.53
2022-12-18T22:58:09.270Z,3.58
2022-12-18T23:00:37.076Z,3.70
2022-12-18T23:03:12.593Z,3.65
2022-12-18T23:05:40.444Z,3.73
2022-12-18T23:08:08.267Z,3.56
2022-12-18T23:10:38.211Z,3.48
2022-12-18T23:13:07.315Z,3.51
2022-12-18T23:15:35.198Z,3.67
2022-12-18T23:18:02.991Z,3.36
2022-12-18T23:20:30.814Z,3.62
2022-12-18T23:22:58.575Z,3.47
2022-12-18T23:25:26.318Z,3.11
2022-12-18T23:27:54.059Z,3.31
2022-12-18T23:30:23.515Z,3.32
2022-12-18T23:32:51.234Z,3.42
2022-12-18T23:35:19.031Z,3.56
2022-12-18T23:38:03.681Z,3.57
2022-12-18T23:40:31.447Z,3.44
2022-12-18T23:43:00.163Z,3.47
2022-12-18T23:45:29.309Z,3.37
2022-12-18T23:47:57.125Z,3.49
2022-12-18T23:50:29.060Z,3.67
2022-12-18T23:53:02.101Z,3.66
2022-12-18T23:55:38.406Z,3.59
2022-12-18T23:58:06.182Z,3.44
